• Join FlightAware (Why Join?)
  • Login
  • US Flag 
09:59PM EDT


 

Airport Tracker/Info


-or-


 

Live Flight TrackerFlight Track Log ✈ VIR19 ✈ 04-Mar-2014 ✈ EGLL / LHR - KSFO

Flight Track Log - Related Links

Times and Time Zones

All times are in EST time to prevent confusion due to time zone crossing. See the VIR19 flight status page for this flight to view local times or setup timezone preferences in your user account.

Time Position Orientation Groundspeed Altitude Reporting Facility
EST Latitude Longitude Course Direction KTS MPH feet Rate Location/Type
06:17AM 51.4775 -0.4743 269° West 164 189 600  Level FlightAware ADS-B
06:17AM 51.4775 -0.4927 271° West 169 194 1,000 1,500 Climbing FlightAware ADS-B
06:17AM 51.4774 -0.4990 270° West 169 194 1,100 1,980 Climbing FlightAware ADS-B (EGTR / ETR)
06:18AM 51.4774 -0.5115 269° West 168 193 1,500 2,160 Climbing FlightAware ADS-B
06:18AM 51.4772 -0.5213 269° West 166 191 1,800 1,980 Climbing FlightAware ADS-B
06:18AM 51.4771 -0.5299 269° West 168 193 2,000 1,680 Climbing FlightAware ADS-B
06:18AM 51.4771 -0.5312 269° West 167 192 2,000 1,500 Level FlightAware ADS-B
06:18AM 51.4771 -0.5449 271° West 170 196 2,300 1,560 Climbing FlightAware ADS-B
06:18AM 51.4776 -0.5500 282° West 177 204 2,400 1,200 Climbing FlightAware ADS-B
06:18AM 51.4778 -0.5514 283° West 178 205 2,400  Level FlightAware ADS-B
06:18AM 51.4787 -0.5551 290° West 183 211 2,400 840 Level FlightAware ADS-B
06:18AM 51.4801 -0.5603 295° West 189 217 2,500 720 Climbing FlightAware ADS-B
06:18AM 51.4814 -0.5642 298° West 195 224 2,500  Level FlightAware ADS-B
06:18AM 51.4833 -0.5705 300° West 199 229 2,500 960 Level FlightAware ADS-B
06:18AM 51.4861 -0.5783 301° West 208 239 2,700 1,320 Climbing FlightAware ADS-B
06:18AM 51.4875 -0.5824 300° West 208 239 2,700 1,980 Level FlightAware ADS-B
06:19AM 51.4883 -0.5836 300° West 208 239 2,800 1,260 Climbing FlightAware ADS-B
06:19AM 51.4945 -0.6017 300° West 223 257 3,000 900 Climbing FlightAware ADS-B
06:19AM 51.4952 -0.6031 299° West 223 257 3,000 1,200 Level FlightAware ADS-B
06:19AM 51.4970 -0.6091 299° West 227 261 3,100 840 Climbing FlightAware ADS-B (EPRZ / RZE)
06:19AM 51.5018 -0.6226 300° West 239 275 3,200 480 Climbing FlightAware ADS-B
06:19AM 51.5034 -0.6273 299° West 240 276 3,200 960 Level FlightAware ADS-B
06:19AM 51.5053 -0.6319 299° West 242 278 3,300 1,980 Climbing FlightAware ADS-B (EGLF / FAB)
06:19AM 51.5068 -0.6367 300° West 243 280 3,400 1,680 Climbing FlightAware ADS-B
06:19AM 51.5100 -0.6444 304° West 246 283 3,500 840 Climbing FlightAware ADS-B
06:19AM 51.5084 -0.6413 305° West 247 284 3,500 1,980 Level FlightAware ADS-B
06:19AM 51.5103 -0.6458 308° West 248 285 3,600 3,000 Climbing FlightAware ADS-B (EGTR / ETR)
06:19AM 51.5128 -0.6503 308° West 248 285 3,600 1,980 Level FlightAware ADS-B
06:19AM 51.5162 -0.6571 314° West 250 288 3,800 1,500 Climbing FlightAware ADS-B
06:19AM 51.5194 -0.6609 320° Northwest 255 293 3,800 1,500 Level FlightAware ADS-B
06:19AM 51.5204 -0.6622 320° Northwest 254 292 3,900 3,000 Climbing FlightAware ADS-B
06:19AM 51.5204 -0.6622 322° Northwest 256 295 3,900 1,200 Level FlightAware ADS-B
06:19AM 51.5249 -0.6676 327° Northwest 257 296 4,000 1,680 Climbing FlightAware ADS-B
06:20AM 51.5278 -0.6706 331° Northwest 259 298 4,100 1,500 Climbing FlightAware ADS-B (EGLF / FAB)
06:20AM 51.5243 -0.6667 329° Northwest 260 299 4,100 3,000 Level FlightAware ADS-B
06:20AM 51.5304 -0.6725 333° Northwest 260 299 4,200 3,000 Climbing FlightAware ADS-B
06:20AM 51.5338 -0.6749 336° Northwest 262 302 4,300 1,200 Climbing FlightAware ADS-B
06:20AM 51.5414 -0.6796 344° North 268 308 4,400 1,620 Climbing FlightAware ADS-B
06:20AM 51.5463 -0.6816 348° North 271 312 4,600 2,220 Climbing FlightAware ADS-B
06:20AM 51.5514 -0.6831 352° North 273 314 4,700 1,980 Climbing FlightAware ADS-B
06:20AM 51.5537 -0.6836 354° North 274 315 4,800 3,000 Climbing FlightAware ADS-B (EPRZ / RZE)
06:20AM 51.5562 -0.6840 355° North 274 315 4,900 3,000 Climbing FlightAware ADS-B
06:20AM 51.5581 -0.6842 356° North 274 315 5,000 2,400 Climbing FlightAware ADS-B
06:20AM 51.5619 -0.6846 357° North 274 315 5,100 2,520 Climbing FlightAware ADS-B (EGHO)
06:20AM 51.5767 -0.6857 358° North 278 320 5,600 2,460 Climbing FlightAware ADS-B
06:20AM 51.5753 -0.6857 358° North 278 320 5,600 1,500 Level FlightAware ADS-B
06:20AM 51.5815 -0.6861 358° North 279 321 5,700 2,520 Climbing FlightAware ADS-B (EGLC / LCY)
06:20AM 51.5964 -0.6870 358° North 281 323 6,200 2,460 Climbing FlightAware ADS-B
06:20AM 51.5951 -0.6870 358° North 282 325 6,200 3,000 Level FlightAware ADS-B
06:21AM 51.6008 -0.6875 357° North 282 325 6,400 2,520 Climbing FlightAware ADS-B (EGLC / LCY)
06:21AM 51.6157 -0.6887 357° North 283 326 6,800 2,460 Climbing FlightAware ADS-B
06:21AM 51.6170 -0.6888 357° North 284 327 6,900 2,220 Climbing FlightAware ADS-B
06:21AM 51.6257 -0.6897 357° North 286 329 7,100 2,280 Climbing FlightAware ADS-B (EGLC / LCY)
06:21AM 51.6328 -0.6904 357° North 287 330 7,400 2,640 Climbing FlightAware ADS-B
06:21AM 51.6378 -0.6909 357° North 287 330 7,500 1,320 Climbing FlightAware ADS-B
06:21AM 51.6456 -0.6917 356° North 286 329 7,600 1,800 Climbing FlightAware ADS-B (EGLC / LCY)
06:21AM 51.6518 -0.6923 356° North 285 328 7,800 1,560 Climbing FlightAware ADS-B
06:21AM 51.6655 -0.6941 356° North 287 330 8,000 720 Climbing FlightAware ADS-B (EGLC / LCY)
06:21AM 51.6720 -0.6949 356° North 288 331 8,000  Level FlightAware ADS-B
06:21AM 51.6744 -0.6951 356° North 287 330 8,000  Level FlightAware ADS-B
06:22AM 51.6924 -0.6975 356° North 289 333 8,000  Level FlightAware ADS-B
06:22AM 51.6950 -0.6978 356° North 289 333 8,000  Level FlightAware ADS-B
06:22AM 51.7129 -0.6998 356° North 290 334 8,000  Level FlightAware ADS-B
06:22AM 51.7244 -0.7011 356° North 291 335 8,000  Level FlightAware ADS-B
06:22AM 51.7340 -0.7020 356° North 291 335 8,000  Level FlightAware ADS-B
06:22AM 51.7431 -0.7030 356° North 291 335 8,000  Level FlightAware ADS-B (EGWE)
06:22AM 51.7545 -0.7041 356° North 292 336 8,000  Level FlightAware ADS-B
06:23AM 51.7684 -0.7056 357° North 293 337 8,000  Level FlightAware ADS-B (EGLC / LCY)
06:23AM 51.7759 -0.7063 356° North 293 337 8,000 900 Level FlightAware ADS-B
06:23AM 51.7970 -0.7084 357° North 299 344 8,300 2,280 Climbing FlightAware ADS-B
06:23AM 51.8174 -0.7105 356° North 290 334 9,200 2,700 Climbing FlightAware ADS-B (EGLC / LCY)
06:23AM 51.8348 -0.7126 356° North 293 337 9,700 1,980 Climbing FlightAware ADS-B (EGLC / LCY)
06:24AM 51.8789 -0.7182 355° North 303 349 10,700 1,920 Climbing FlightAware ADS-B
06:24AM 51.8810 -0.7183 356° North 295 339 10,700 720 Level FlightAware ADS-B
06:24AM 51.9247 -0.7239 356° North 334 384 11,100 720 Climbing FlightAware ADS-B
06:24AM 51.9273 -0.7241 356° North 336 387 11,100 1,140 Level FlightAware ADS-B
06:25AM 51.9744 -0.7296 356° North 358 412 11,700 1,020 Climbing FlightAware ADS-B
06:25AM 52.0203 -0.7356 355° North 382 440 12,100 780 Climbing FlightAware ADS-B
06:25AM 52.0262 -0.7364 355° North 385 443 12,100 1,080 Level FlightAware ADS-B
06:26AM 52.0784 -0.7446 353° North 399 459 12,700 1,260 Climbing FlightAware ADS-B
06:26AM 52.0929 -0.7491 347° North 402 463 12,900 1,620 Climbing FlightAware ADS-B
06:26AM 52.1108 -0.7580 339° North 403 464 13,200 660 Climbing FlightAware ADS-B
06:26AM 52.1027 -0.7530 343° North 402 463 13,100 2,160 Descending FlightAware ADS-B
06:27AM 52.1514 -0.7853 336° Northwest 403 464 14,100 3,000 Climbing FlightAware ADS-B
06:27AM 52.1639 -0.7945 338° Northwest 406 467 14,300 2,160 Climbing FlightAware ADS-B
06:27AM 52.1730 -0.8003 336° Northwest 403 464 14,500 1,980 Climbing FlightAware ADS-B (EGNR / CEG)
06:27AM 52.2172 -0.8303 337° Northwest 411 473 15,300 1,920 Climbing FlightAware ADS-B
06:27AM 52.2388 -0.8450 337° Northwest 414 476 15,700 2,100 Climbing FlightAware ADS-B
06:28AM 52.2719 -0.8701 335° Northwest 417 480 16,400 2,400 Climbing FlightAware ADS-B
06:28AM 52.2898 -0.8853 333° Northwest 420 483 16,900 2,460 Climbing FlightAware ADS-B (EGNA)
06:28AM 52.2940 -0.8882 333° Northwest 420 483 17,100 2,100 Climbing FlightAware ADS-B (EGTR / ETR)
06:28AM 52.3254 -0.9136 334° Northwest 424 488 17,600 2,280 Climbing FlightAware ADS-B
06:29AM 52.3751 -0.9536 333° Northwest 420 483 18,700 2,460 Climbing FlightAware ADS-B
06:29AM 52.3852 -0.9622 334° Northwest 426 490 19,000 3,000 Climbing FlightAware ADS-B
06:29AM 52.3808 -0.9581 334° Northwest 425 489 19,200 3,420 Climbing FlightAware ADS-B
06:29AM 52.4056 -0.9794 334° Northwest 420 483 19,800 3,060 Climbing FlightAware ADS-B (EGTR / ETR)
06:29AM 52.4396 -1.0060 334° Northwest 420 483 20,600 3,120 Climbing FlightAware ADS-B
06:29AM 52.4444 -1.0103 334° Northwest 420 483 20,900 2,460 Climbing FlightAware ADS-B (EGLF / FAB)
06:30AM 52.4444 -1.0103 334° Northwest 420 483 21,300 2,040 Climbing FlightAware ADS-B (EGLF / FAB)
06:30AM 52.4920 -1.0485 334° Northwest 421 484 21,800 2,160 Climbing FlightAware ADS-B
06:30AM 52.5017 -1.0570 333° Northwest 414 476 22,000 2,100 Climbing FlightAware ADS-B (EGNR / CEG)
06:30AM 52.5238 -1.0741 334° Northwest 421 484 22,500 2,160 Climbing FlightAware ADS-B (EGLF / FAB)
06:30AM 52.5465 -1.0941 333° Northwest 423 487 22,900 2,580 Climbing FlightAware ADS-B
06:31AM 52.5534 -1.0985 334° Northwest 424 488 23,200 2,280 Climbing FlightAware ADS-B (EGLF / FAB)
06:31AM 52.5754 -1.1170 334° Northwest 424 488 23,600 1,920 Climbing FlightAware ADS-B (EGXW / WTN)
06:31AM 52.6030 -1.1399 334° Northwest 424 488 24,100 1,980 Climbing FlightAware ADS-B
06:31AM 52.6282 -1.1601 334° Northwest 426 490 24,600 2,100 Climbing FlightAware ADS-B (EGLF / FAB)
06:31AM 52.6585 -1.1848 333° Northwest 427 491 25,200 1,980 Climbing FlightAware ADS-B
06:32AM 52.6723 -1.1965 334° Northwest 429 494 25,400 1,860 Climbing FlightAware ADS-B
06:32AM 52.7154 -1.2316 333° Northwest 431 496 26,200 2,220 Climbing FlightAware ADS-B
06:32AM 52.7342 -1.2478 333° Northwest 428 493 26,700 3,060 Climbing FlightAware ADS-B
06:32AM 52.7633 -1.2709 334° Northwest 423 487 27,600 2,820 Climbing FlightAware ADS-B
06:33AM 52.7713 -1.2783 333° Northwest 423 487 27,700 2,760 Climbing FlightAware ADS-B
06:33AM 52.7798 -1.2854 334° Northwest 419 482 28,300 2,520 Climbing FlightAware ADS-B (EGTR / ETR)
06:33AM 52.8276 -1.3253 333° Northwest 413 475 29,100 2,220 Climbing FlightAware ADS-B
06:33AM 52.8354 -1.3310 333° Northwest 412 474 29,300 2,400 Climbing FlightAware ADS-B (EGCB)
06:33AM 52.8285 -1.3252 333° Northwest 412 474 29,900 1,260 Climbing FlightAware ADS-B (EGXU / HRT)
06:34AM 52.8822 -1.3708 333° Northwest 414 476 29,900 300 Level FlightAware ADS-B
06:34AM 52.8912 -1.3778 334° Northwest 414 476 30,000 240 Climbing FlightAware ADS-B
06:34AM 52.9176 -1.3992 333° Northwest 413 475 30,000  Level FlightAware ADS-B (EGXU / HRT)
06:34AM 52.9343 -1.4134 333° Northwest 413 475 30,000  Level FlightAware ADS-B
06:35AM 52.9730 -1.4460 333° Northwest 411 473 30,000  Level FlightAware ADS-B (EGOW)
06:35AM 52.9873 -1.4572 333° Northwest 411 473 30,000  Level FlightAware ADS-B
06:35AM 53.0293 -1.4928 333° Northwest 411 473 30,000  Level FlightAware ADS-B (EGCB)
06:35AM 53.0411 -1.5026 333° Northwest 411 473 30,000  Level FlightAware ADS-B
06:36AM 53.0759 -1.5310 333° Northwest 411 473 30,000  Level FlightAware ADS-B (EGBS)
06:36AM 53.0933 -1.5467 333° Northwest 410 472 30,000  Level FlightAware ADS-B
06:36AM 53.1275 -1.5751 333° Northwest 411 473 30,000  Level FlightAware ADS-B (EGBS)
06:36AM 53.1488 -1.5937 333° Northwest 411 473 30,000  Level FlightAware ADS-B
06:36AM 53.1623 -1.6037 334° Northwest 410 472 30,000  Level FlightAware ADS-B
06:37AM 53.1790 -1.6181 334° Northwest 411 473 30,000  Level FlightAware ADS-B
06:37AM 53.1998 -1.6367 333° Northwest 411 473 30,000  Level FlightAware ADS-B
06:37AM 53.2294 -1.6610 333° Northwest 411 473 30,000  Level FlightAware ADS-B (EGBS)
06:37AM 53.2585 -1.6853 333° Northwest 411 473 30,000  Level FlightAware ADS-B
06:37AM 53.2594 -1.6867 334° Northwest 410 472 30,000  Level FlightAware ADS-B
06:38AM 53.2799 -1.7039 334° Northwest 410 472 30,000  Level FlightAware ADS-B
06:38AM 53.3056 -1.7254 334° Northwest 410 472 30,000  Level FlightAware ADS-B
06:38AM 53.3258 -1.7428 333° Northwest 411 473 30,000  Level FlightAware ADS-B
06:38AM 53.3276 -1.7442 334° Northwest 410 472 30,000  Level FlightAware ADS-B
06:39AM 53.3808 -1.7902 333° Northwest 403 464 30,000  Level FlightAware ADS-B
06:39AM 53.4059 -1.8118 332° Northwest 404 465 30,000  Level FlightAware ADS-B (EGCB)
06:39AM 53.4337 -1.8350 333° Northwest 411 473 30,000  Level FlightAware ADS-B
06:39AM 53.4540 -1.8523 333° Northwest 403 464 30,000  Level FlightAware ADS-B (EGCD)
06:39AM 53.4727 -1.8681 332° Northwest 403 464 30,000  Level FlightAware ADS-B (EGCB)
06:40AM 53.4815 -1.8753 332° Northwest 403 464 30,000  Level FlightAware ADS-B (EGOW)
06:40AM 53.4859 -1.8798 333° Northwest 410 472 30,000  Level FlightAware ADS-B
06:40AM 53.5040 -1.8957 333° Northwest 410 472 30,000  Level FlightAware ADS-B (EGXW / WTN)
06:40AM 53.5367 -1.9232 332° Northwest 402 463 30,000  Level FlightAware ADS-B
06:40AM 53.5686 -1.9508 332° Northwest 402 463 30,000  Level FlightAware ADS-B
06:41AM 53.5799 -1.9608 332° Northwest 402 463 30,000  Level FlightAware ADS-B (EGOW)
06:41AM 53.6016 -1.9797 333° Northwest 409 471 30,000  Level FlightAware ADS-B (EGXU / HRT)
06:41AM 53.6089 -1.9855 333° Northwest 409 471 30,000  Level FlightAware ADS-B (EGNT / NCL)
06:41AM 53.6164 -1.9928 332° Northwest 401 461 30,000  Level FlightAware ADS-B (EGNR / CEG)
06:41AM 53.6356 -2.0088 332° Northwest 401 461 30,000  Level FlightAware ADS-B
06:41AM 53.6591 -2.0291 332° Northwest 400 460 30,000  Level FlightAware ADS-B (EGOW)
06:41AM 53.6797 -2.0465 332° Northwest 401 461 30,000  Level FlightAware ADS-B (EGCB)
06:42AM 53.7118 -2.0741 332° Northwest 401 461 30,000  Level FlightAware ADS-B
06:42AM 53.7598 -2.1127 336° Northwest 411 473 30,000  Level FlightAware ADS-B (EGAA / BFS)
06:43AM 53.7851 -2.1314 337° Northwest 404 465 30,000  Level FlightAware ADS-B (EGNR / CEG)
06:43AM 53.8363 -2.1663 339° North 412 474 30,000  Level FlightAware ADS-B
06:43AM 53.8592 -2.1818 338° Northwest 412 474 30,000  Level FlightAware ADS-B (EGCD)
06:44AM 53.9170 -2.2213 338° Northwest 412 474 30,000  Level FlightAware ADS-B (EGAA / BFS)
06:44AM 53.9735 -2.2600 338° Northwest 412 474 30,000  Level FlightAware ADS-B (EGBS)
06:45AM 54.0284 -2.2978 338° Northwest 412 474 30,000  Level FlightAware ADS-B (EGAA / BFS)
06:45AM 54.0824 -2.3344 338° Northwest 412 474 30,000  Level FlightAware ADS-B (EGNT / NCL)
06:46AM 54.1324 -2.3698 338° Northwest 411 473 30,000  Level FlightAware ADS-B (EGNT / NCL)
06:46AM 54.1707 -2.3955 337° Northwest 404 465 30,000  Level FlightAware ADS-B
06:46AM 54.1999 -2.4163 337° Northwest 404 465 30,000  Level FlightAware ADS-B (EGNR / CEG)
06:47AM 54.2599 -2.4578 338° Northwest 410 472 30,000  Level FlightAware ADS-B (EGNT / NCL)
06:47AM 54.2868 -2.4762 337° Northwest 403 464 30,000  Level FlightAware ADS-B
06:47AM 54.3003 -2.4860 337° Northwest 403 464 30,000  Level FlightAware ADS-B (EGCB)
06:48AM 54.3146 -2.4959 337° Northwest 403 464 30,000  Level FlightAware ADS-B
06:48AM 54.3702 -2.5351 338° Northwest 412 474 30,000  Level FlightAware ADS-B (EGPH / EDI)
06:49AM 54.4283 -2.5761 338° Northwest 412 474 30,000  Level FlightAware ADS-B (EGAA / BFS)
06:49AM 54.4783 -2.6107 338° Northwest 412 474 30,000  Level FlightAware ADS-B (EGCC / MAN)
06:50AM 54.5430 -2.6567 338° Northwest 411 473 30,000  Level FlightAware ADS-B (EGNT / NCL)
06:50AM 54.5964 -2.6948 338° Northwest 412 474 30,000  Level FlightAware UK
06:50AM 54.6095 -2.7041 338° Northwest 412 474 30,000  Level FlightAware ADS-B (EGNT / NCL)
06:51AM 54.6583 -2.7393 338° Northwest 411 473 30,000  Level FlightAware ADS-B (EGNT / NCL)
06:51AM 54.7144 -2.7869 327° Northwest 399 459 30,000  Level FlightAware ADS-B (EGNR / CEG)
06:52AM 54.7587 -2.8452 322° Northwest 405 466 30,000  Level FlightAware ADS-B (EGNT / NCL)
06:52AM 54.8149 -2.9222 321° Northwest 400 460 30,000  Level FlightAware ADS-B (EGPK / PIK)
06:53AM 54.8611 -2.9874 321° Northwest 405 466 30,000  Level FlightAware ADS-B (EGPH / EDI)
06:53AM 54.8782 -3.0100 321° Northwest 405 466 30,000  Level FlightAware ADS-B (EGNT / NCL)
06:54AM 54.9038 -3.0468 320° Northwest 399 459 30,000  Level FlightAware ADS-B (EGPK / PIK)
06:54AM 54.9394 -3.0958 320° Northwest 399 459 30,000  Level FlightAware ADS-B (EGPK / PIK)
06:54AM 54.9794 -3.1532 320° Northwest 401 461 30,000  Level FlightAware ADS-B (EGPK / PIK)
06:55AM 55.0106 -3.1965 320° Northwest 402 463 30,000  Level FlightAware ADS-B (EGPK / PIK)
06:55AM 55.0149 -3.2026 320° Northwest 401 461 30,000  Level FlightAware ADS-B
06:55AM 55.0225 -3.2130 320° Northwest 401 461 30,000  Level FlightAware ADS-B
06:55AM 55.0635 -3.2711 320° Northwest 402 463 30,000  Level FlightAware ADS-B
06:56AM 55.0848 -3.3021 321° Northwest 409 471 30,000  Level FlightAware ADS-B (EGPH / EDI)
06:56AM 55.0909 -3.3105 320° Northwest 403 464 30,000 480 Level FlightAware ADS-B (EGNR / CEG)
06:56AM 55.1225 -3.3542 320° Northwest 403 464 30,200 1,080 Climbing FlightAware ADS-B (EGNR / CEG)
06:57AM 55.1710 -3.4234 321° Northwest 414 476 31,000 1,380 Climbing FlightAware ADS-B (EGPK / PIK)
06:57AM 55.2130 -3.4848 321° Northwest 414 476 31,700 1,440 Climbing FlightAware ADS-B (EGAA / BFS)
06:58AM 55.2612 -3.5525 321° Northwest 416 479 32,500 1,200 Climbing FlightAware ADS-B (EGPK / PIK)
06:58AM 55.3084 -3.6212 321° Northwest 421 484 33,000 840 Climbing FlightAware ADS-B (EGAA / BFS)
06:58AM 55.3220 -3.6408 320° Northwest 416 479 33,100 540 Climbing FlightAware ADS-B
06:59AM 55.3568 -3.6912 321° Northwest 428 493 33,300 660 Climbing FlightAware ADS-B (EGPH / EDI)
06:59AM 55.3751 -3.7177 320° Northwest 423 487 33,500 660 Climbing FlightAware ADS-B
06:59AM 55.3759 -3.7178 320° Northwest 424 488 33,500 720 Level FlightAware ADS-B
06:59AM 55.4359 -3.8050 321° Northwest 438 504 34,000 420 Climbing FlightAware ADS-B (EGAE / LDY)
07:00AM 55.4839 -3.8753 321° Northwest 438 504 34,000  Level FlightAware ADS-B (EGPH / EDI)
07:00AM 55.5339 -3.9480 321° Northwest 438 504 34,000  Level FlightAware ADS-B (EGPF / GLA)
07:01AM 55.5830 -4.0188 320° Northwest 439 505 34,000  Level FlightAware ADS-B (EGPK / PIK)
07:02AM 55.6365 -4.0971 320° Northwest 443 510 34,000  Level FlightAware ADS-B
07:02AM 55.6954 -4.1849 320° Northwest 442 509 34,000  Level FlightAware ADS-B (EGPH / EDI)
07:03AM 55.7430 -4.2548 320° Northwest 442 509 34,000  Level FlightAware ADS-B (EGPF / GLA)
07:03AM 55.7915 -4.3270 320° Northwest 444 511 34,000  Level FlightAware ADS-B (EGPK / PIK)
07:04AM 55.8495 -4.4137 320° Northwest 445 512 34,000  Level FlightAware ADS-B (EGPG)
07:04AM 55.8915 -4.4750 320° Northwest 447 514 34,000  Level FlightAware ADS-B (EGPF / GLA)
07:05AM 55.9528 -4.5687 318° Northwest 448 516 34,000  Level FlightAware ADS-B (EGPF / GLA)
07:05AM 56.0029 -4.6501 317° Northwest 441 507 34,000  Level FlightAware ADS-B (EGPK / PIK)
07:06AM 56.0348 -4.7019 317° Northwest 439 505 34,000  Level FlightAware ADS-B (EGAE / LDY)
07:06AM 56.0881 -4.7876 318° Northwest 446 513 34,000  Level FlightAware ADS-B (EGPF / GLA)
07:07AM 56.1368 -4.8638 318° Northwest 446 513 34,000  Level FlightAware ADS-B (EGPG)
07:07AM 56.1819 -4.9379 318° Northwest 449 517 34,000  Level FlightAware ADS-B (EGPF / GLA)
07:08AM 56.2413 -5.0322 318° Northwest 453 521 34,000  Level FlightAware ADS-B (EGPH / EDI)
07:09AM 56.2907 -5.1126 318° Northwest 453 521 34,000  Level FlightAware ADS-B (EGAA / BFS)
07:09AM 56.3543 -5.2158 318° Northwest 453 521 34,000  Level FlightAware ADS-B (EGPH / EDI)
07:10AM 56.4103 -5.3072 318° Northwest 454 522 34,000  Level FlightAware UK
07:10AM 56.4090 -5.3045 318° Northwest 452 520 34,000  Level FlightAware ADS-B (EGPG)
07:11AM 56.4752 -5.4135 318° Northwest 453 521 34,000  Level FlightAware ADS-B (EGPF / GLA)
07:11AM 56.5226 -5.4901 318° Northwest 452 520 34,000  Level FlightAware ADS-B (EGAA / BFS)
07:12AM 56.5754 -5.5786 317° Northwest 449 517 34,000  Level FlightAware ADS-B (EGPH / EDI)
07:12AM 56.5832 -5.5915 318° Northwest 449 517 34,000  Level FlightAware ADS-B (EGPG)
07:12AM 56.6371 -5.6804 317° Northwest 449 517 34,000  Level FlightAware ADS-B (EGPH / EDI)
07:13AM 56.6935 -5.7749 317° Northwest 450 518 34,000  Level FlightAware ADS-B (EGPH / EDI)
07:13AM 56.7203 -5.8185 317° Northwest 446 513 34,000  Level FlightAware ADS-B (EGPK / PIK)
07:14AM 56.7707 -5.9035 317° Northwest 454 522 34,000  Level FlightAware ADS-B (EGAA / BFS)
07:14AM 56.8177 -5.9812 317° Northwest 454 522 34,000  Level FlightAware ADS-B (EGAA / BFS)
07:15AM 56.8814 -6.0904 317° Northwest 456 525 34,000  Level FlightAware UK
07:15AM 56.8906 -6.1059 316° Northwest 448 516 34,000  Level FlightAware ADS-B (EGAE / LDY)
07:16AM 56.9712 -6.2413 317° Northwest 446 513 34,000  Level FlightAware ADS-B (EGAE / LDY)
07:17AM 57.0280 -6.3399 317° Northwest 450 518 34,000  Level FlightAware UK
07:17AM 57.0600 -6.3945 316° Northwest 444 511 34,000  Level FlightAware ADS-B (EGAE / LDY)
07:18AM 57.1246 -6.5037 317° Northwest 448 516 34,000  Level FlightAware ADS-B (EGAE / LDY)
07:18AM 57.1696 -6.5820 317° Northwest 448 516 34,000  Level FlightAware ADS-B (EGAE / LDY)
07:18AM 57.1729 -6.5894 317° Northwest 448 516 34,000  Level FlightAware UK
07:19AM 57.2181 -6.6674 317° Northwest 448 516 34,000  Level FlightAware UK
07:19AM 57.2631 -6.7458 317° Northwest 448 516 34,000  Level FlightAware UK
07:20AM 57.3081 -6.8244 317° Northwest 448 516 34,000  Level FlightAware UK
07:20AM 57.3682 -6.9302 316° Northwest 448 516 34,000  Level FlightAware ADS-B (EGPH / EDI)
07:20AM 57.3531 -6.9033 317° Northwest 448 516 34,000  Level FlightAware UK
07:21AM 57.3979 -6.9826 316° Northwest 448 516 34,000  Level FlightAware UK
07:21AM 57.4430 -7.0620 316° Northwest 450 518 34,000  Level FlightAware UK
07:22AM 57.4880 -7.1415 317° Northwest 450 518 34,000  Level FlightAware UK
07:22AM 57.5331 -7.2217 316° Northwest 450 518 34,000  Level FlightAware UK
07:23AM 57.5782 -7.3022 316° Northwest 450 518 34,000  Level FlightAware UK
07:23AM 57.6231 -7.3826 316° Northwest 450 518 34,000  Level FlightAware UK
07:24AM 57.6680 -7.4631 316° Northwest 450 518 34,000  Level FlightAware UK
07:24AM 57.7128 -7.5436 316° Northwest 450 518 34,000  Level FlightAware UK
07:25AM 57.7574 -7.6247 316° Northwest 450 518 34,000  Level FlightAware UK
07:25AM 57.8107 -7.7216 316° Northwest 450 518 34,000  Level FlightAware UK
07:26AM 57.8553 -7.8031 316° Northwest 450 518 34,000  Level FlightAware UK
07:26AM 57.8998 -7.8847 316° Northwest 450 518 34,000  Level FlightAware UK
07:27AM 57.9443 -7.9661 316° Northwest 448 516 34,000  Level FlightAware UK
07:27AM 57.9886 -8.0477 316° Northwest 448 516 34,000  Level FlightAware UK
07:28AM 58.0327 -8.1297 315° West 450 518 34,000 600 Level FlightAware UK
07:28AM 58.0770 -8.2121 315° West 450 518 34,600 960 Climbing FlightAware UK
07:29AM 58.1211 -8.2947 315° West 450 518 35,000 360 Climbing FlightAware UK
07:29AM 58.1653 -8.3773 315° West 448 516 35,000  Level FlightAware UK
07:30AM 58.2095 -8.4600 315° West 448 516 35,000  Level FlightAware UK
07:30AM 58.2534 -8.5427 315° West 446 513 35,000  Level FlightAware UK
07:31AM 58.2970 -8.6254 315° West 446 513 35,000  Level FlightAware UK
07:31AM 58.3407 -8.7080 315° West 446 513 35,000  Level FlightAware UK
07:32AM 58.3841 -8.7912 315° West 446 513 35,000  Level FlightAware UK
07:32AM 58.4278 -8.8744 315° West 446 513 35,000  Level FlightAware UK
07:33AM 58.4713 -8.9581 315° West 448 516 35,000  Level FlightAware UK
07:35AM 58.6099 -9.2883 309° West  Level Estimated
07:42AM 59.1608 -10.6487 309° West  Level Estimated
07:43AM 59.2384 -10.8466 308° West  Level Estimated
07:44AM 59.3156 -11.0454 307° West  Level Estimated
07:45AM 59.3925 -11.2451 307° West  Level Estimated
07:46AM 59.4691 -11.4457 307° West  Level Estimated
07:47AM 59.5454 -11.6472 307° West  Level Estimated
07:48AM 59.6214 -11.8496 307° West  Level Estimated
07:49AM 59.6971 -12.0530 306° West  Level Estimated
07:50AM 59.7724 -12.2572 306° West  Level Estimated
07:51AM 59.8475 -12.4624 306° West  Level Estimated
07:52AM 59.9222 -12.6685 306° West  Level Estimated
07:53AM 59.9966 -12.8756 306° West  Level Estimated
07:54AM 60.0707 -13.0836 306° West  Level Estimated
07:55AM 60.1445 -13.2925 305° West  Level Estimated
07:56AM 60.2179 -13.5023 305° West  Level Estimated
07:57AM 60.2910 -13.7131 305° West  Level Estimated
07:58AM 60.3637 -13.9248 305° West  Level Estimated
07:59AM 60.4361 -14.1375 305° West  Level Estimated
08:00AM 60.5082 -14.3511 304° West  Level Estimated
08:01AM 60.5799 -14.5657 304° West  Level Estimated
08:02AM 60.6513 -14.7812 304° West  Level Estimated
08:03AM 60.7223 -14.9977 304° West  Level Estimated
08:04AM 60.7930 -15.2151 304° West  Level Estimated
08:05AM 60.8634 -15.4335 304° West  Level Estimated
08:06AM 60.9333 -15.6529 303° West  Level Estimated
08:07AM 61.0029 -15.8732 303° West  Level Estimated
08:08AM 61.0722 -16.0944 303° West  Level Estimated
08:09AM 61.1411 -16.3167 303° West  Level Estimated
08:10AM 61.2096 -16.5399 303° West  Level Estimated
08:11AM 61.2778 -16.7641 302° West  Level Estimated
08:12AM 61.3456 -16.9893 302° West  Level Estimated
08:13AM 61.4130 -17.2154 302° West  Level Estimated
08:14AM 61.4800 -17.4425 302° West  Level Estimated
08:15AM 61.5467 -17.6706 302° West  Level Estimated
08:16AM 61.6130 -17.8997 301° West  Level Estimated
08:17AM 61.6789 -18.1297 301° West  Level Estimated
08:18AM 61.7444 -18.3608 301° West  Level Estimated
08:19AM 61.8095 -18.5928 301° West  Level Estimated
08:20AM 61.8742 -18.8258 301° West  Level Estimated
08:21AM 61.9385 -19.0598 300° West  Level Estimated
08:22AM 62.0025 -19.2947 300° West  Level Estimated
08:23AM 62.0660 -19.5307 300° West  Level Estimated
08:24AM 62.1291 -19.7676 300° West  Level Estimated
08:25AM 62.1918 -20.0056 300° West  Level Estimated
08:26AM 62.2541 -20.2444 299° West  Level Estimated
08:27AM 62.3160 -20.4844 299° West  Level Estimated
08:28AM 62.3775 -20.7252 299° West  Level Estimated
08:29AM 62.4386 -20.9671 299° West  Level Estimated
08:30AM 62.4992 -21.2099 298° West  Level Estimated
08:31AM 62.5594 -21.4538 298° West  Level Estimated
08:32AM 62.6192 -21.6986 298° West  Level Estimated
08:33AM 62.6786 -21.9444 298° West  Level Estimated
08:34AM 62.7375 -22.1912 298° West  Level Estimated
08:35AM 62.7960 -22.4390 297° West  Level Estimated
08:36AM 62.8541 -22.6878 297° West  Level Estimated
08:37AM 62.9117 -22.9375 297° West  Level Estimated
08:38AM 62.9689 -23.1882 297° West  Level Estimated
08:39AM 63.0256 -23.4399 297° West  Level Estimated
08:40AM 63.0819 -23.6926 296° West  Level Estimated
08:41AM 63.1377 -23.9463 296° West  Level Estimated
08:42AM 63.1931 -24.2009 296° West  Level Estimated
08:43AM 63.2480 -24.4565 296° West  Level Estimated
08:44AM 63.3025 -24.7131 295° West  Level Estimated
08:45AM 63.3564 -24.9706 295° West  Level Estimated
08:46AM 63.4100 -25.2291 295° West  Level Estimated
08:47AM 63.4630 -25.4886 295° West  Level Estimated
08:48AM 63.5156 -25.7490 294° West  Level Estimated
08:49AM 63.5677 -26.0104 294° West  Level Estimated
08:50AM 63.6194 -26.2727 294° West  Level Estimated
08:51AM 63.6705 -26.5360 294° West  Level Estimated
08:52AM 63.7212 -26.8002 294° West  Level Estimated
08:53AM 63.7714 -27.0654 293° West  Level Estimated
08:54AM 63.8211 -27.3316 293° West  Level Estimated
08:55AM 63.8703 -27.5986 293° West  Level Estimated
08:56AM 63.9190 -27.8666 293° West  Level Estimated
08:57AM 63.9673 -28.1355 292° West  Level Estimated
08:58AM 64.0150 -28.4053 292° West  Level Estimated
08:59AM 64.0622 -28.6761 292° West  Level Estimated
09:00AM 64.1089 -28.9478 292° West  Level Estimated
09:01AM 64.1551 -29.2204 291° West  Level Estimated
09:02AM 64.2008 -29.4938 291° West  Level Estimated
09:03AM 64.2460 -29.7682 291° West  Level Estimated
09:04AM 64.2907 -30.0435 291° West  Level Estimated
09:05AM 64.3348 -30.3197 290° West  Level Estimated
09:06AM 64.3784 -30.5967 290° West  Level Estimated
09:07AM 64.4215 -30.8746 290° West  Level Estimated
09:08AM 64.4641 -31.1534 290° West  Level Estimated
09:09AM 64.5062 -31.4331 289° West  Level Estimated
09:10AM 64.5477 -31.7136 289° West  Level Estimated
09:11AM 64.5887 -31.9949 289° West  Level Estimated
09:12AM 64.6291 -32.2771 289° West  Level Estimated
09:13AM 64.6690 -32.5602 288° West  Level Estimated
09:14AM 64.7084 -32.8441 288° West  Level Estimated
09:15AM 64.7472 -33.1287 288° West  Level Estimated
09:16AM 64.7855 -33.4142 288° West  Level Estimated
09:17AM 64.8232 -33.7006 287° West  Level Estimated
09:18AM 64.8603 -33.9877 287° West  Level Estimated
09:19AM 64.8969 -34.2756 287° West  Level Estimated
09:20AM 64.9330 -34.5642 287° West  Level Estimated
09:21AM 64.9685 -34.8537 286° West  Level Estimated
09:22AM 65.0034 -35.1439 286° West  Level Estimated
09:23AM 65.0378 -35.4348 286° West  Level Estimated
09:24AM 65.0716 -35.7266 285° West  Level Estimated
09:25AM 65.1048 -36.0190 285° West  Level Estimated
09:26AM 65.1375 -36.3122 285° West  Level Estimated
09:27AM 65.1696 -36.6060 285° West  Level Estimated
09:28AM 65.2011 -36.9006 284° West  Level Estimated
09:29AM 65.2320 -37.1959 284° West  Level Estimated
09:30AM 65.2624 -37.4919 284° West  Level Estimated
09:31AM 65.2922 -37.7886 284° West  Level Estimated
09:32AM 65.3213 -38.0859 283° West  Level Estimated
09:33AM 65.3499 -38.3838 283° West  Level Estimated
09:34AM 65.3780 -38.6824 283° West  Level Estimated
09:35AM 65.4054 -38.9817 283° West  Level Estimated
09:36AM 65.4322 -39.2815 282° West  Level Estimated
09:37AM 65.4584 -39.5820 282° West  Level Estimated
09:38AM 65.4841 -39.8830 282° West  Level Estimated
09:39AM 65.5091 -40.1847 281° West  Level Estimated
09:40AM 65.5335 -40.4869 281° West  Level Estimated
09:41AM 65.5574 -40.7897 281° West  Level Estimated
09:42AM 65.5806 -41.0930 281° West  Level Estimated
09:43AM 65.6032 -41.3969 280° West  Level Estimated
09:44AM 65.6253 -41.7012 280° West  Level Estimated
09:45AM 65.6467 -42.0061 280° West  Level Estimated
09:46AM 65.6675 -42.3115 280° West  Level Estimated
09:47AM 65.6877 -42.6174 279° West  Level Estimated
09:48AM 65.7072 -42.9238 279° West  Level Estimated
09:49AM 65.7262 -43.2305 279° West  Level Estimated
09:50AM 65.7445 -43.5378 278° West  Level Estimated
09:51AM 65.7623 -43.8455 278° West  Level Estimated
09:52AM 65.7794 -44.1535 278° West  Level Estimated
09:53AM 65.7959 -44.4620 278° West  Level Estimated
09:54AM 65.8117 -44.7709 277° West  Level Estimated
09:55AM 65.8270 -45.0802 277° West  Level Estimated
09:56AM 65.8416 -45.3898 277° West  Level Estimated
09:57AM 65.8556 -45.6997 276° West  Level Estimated
09:58AM 65.8689 -46.0100 276° West  Level Estimated
09:59AM 65.8817 -46.3206 276° West  Level Estimated
10:00AM 65.8938 -46.6315 276° West  Level Estimated
10:01AM 65.9052 -46.9427 275° West  Level Estimated
10:02AM 65.9161 -47.2542 275° West  Level Estimated
10:03AM 65.9263 -47.5659 275° West  Level Estimated
10:04AM 65.9359 -47.8778 274° West  Level Estimated
10:05AM 65.9448 -48.1900 274° West  Level Estimated
10:06AM 65.9532 -48.5024 274° West  Level Estimated
10:07AM 65.9608 -48.8150 274° West  Level Estimated
10:08AM 65.9679 -49.1278 273° West  Level Estimated
10:09AM 65.9743 -49.4407 273° West  Level Estimated
10:10AM 65.9801 -49.7538 273° West  Level Estimated
10:11AM 65.9852 -50.0670 272° West  Level Estimated
10:12AM 65.9897 -50.3803 272° West  Level Estimated
10:13AM 65.9936 -50.6938 272° West  Level Estimated
10:14AM 65.9968 -51.0073 272° West  Level Estimated
10:15AM 65.9994 -51.3209 271° West  Level Estimated
10:16AM 66.0014 -51.6346 271° West  Level Estimated
10:17AM 66.0027 -51.9483 271° West  Level Estimated
10:18AM 66.0034 -52.2620 270° West  Level Estimated
10:19AM 66.0034 -52.5757 270° West  Level Estimated
10:20AM 66.0028 -52.8894 270° West  Level Estimated
10:21AM 66.0016 -53.2031 270° West  Level Estimated
10:22AM 65.9997 -53.5168 269° West  Level Estimated
10:23AM 65.9972 -53.8304 269° West  Level Estimated
10:24AM 65.9940 -54.1439 269° West  Level Estimated
10:25AM 65.9902 -54.4574 268° West  Level Estimated
10:26AM 65.9858 -54.7707 268° West  Level Estimated
10:27AM 65.9808 -55.0840 268° West  Level Estimated
10:28AM 65.9751 -55.3970 268° West  Level Estimated
10:29AM 65.9687 -55.7100 267° West  Level Estimated
10:30AM 65.9617 -56.0228 267° West  Level Estimated
10:31AM 65.9541 -56.3354 267° West  Level Estimated
10:32AM 65.9457 -56.6555 266° West  Level Estimated
10:33AM 65.9366 -56.9754 266° West  Level Estimated
10:34AM 65.9268 -57.2951 266° West  Level Estimated
10:35AM 65.9164 -57.6144 266° West  Level Estimated
10:36AM 65.9053 -57.9336 265° West  Level Estimated
10:37AM 65.8935 -58.2505 265° West  Level Estimated
10:38AM 65.8812 -58.5672 265° West  Level Estimated
10:39AM 65.8682 -58.8835 264° West  Level Estimated
10:40AM 65.8546 -59.1995 264° West  Level Estimated
10:41AM 65.8402 -59.5151 264° West  Level Estimated
10:42AM 65.8253 -59.8304 264° West  Level Estimated
10:43AM 65.8097 -60.1454 263° West  Level Estimated
10:44AM 65.7935 -60.4599 263° West  Level Estimated
10:45AM 65.7766 -60.7740 263° West  Level Estimated
10:46AM 65.7590 -61.0877 262° West  Level Estimated
10:47AM 65.7409 -61.4010 262° West  Level Estimated
10:48AM 65.7221 -61.7138 262° West  Level Estimated
10:49AM 65.7026 -62.0262 262° West  Level Estimated
10:50AM 65.6825 -62.3381 261° West  Level Estimated
10:51AM 65.6618 -62.6495 261° West  Level Estimated
10:52AM 65.6404 -62.9604 261° West  Level Estimated
10:53AM 65.6184 -63.2707 260° West  Level Estimated
10:54AM 65.5958 -63.5806 260° West  Level Estimated
10:55AM 65.5725 -63.8899 260° West  Level Estimated
10:55AM 66.5833 -68.5333 258° West 500 575 36,000  Level Edmonton Center
10:56AM 65.5487 -64.1986 260° West  Level Estimated
10:56AM 66.5500 -68.9167 258° West 510 587 36,000  Level Edmonton Center
10:57AM 65.5241 -64.5068 259° West  Level Estimated
10:57AM 66.5167 -69.2667 257° West 520 598 36,000  Level Edmonton Center
10:58AM 65.4990 -64.8143 259° West  Level Estimated
10:58AM 66.5000 -69.6000 263° West 520 598 36,000  Level Edmonton Center
10:59AM 65.4733 -65.1213 259° West  Level Estimated
10:59AM 66.4667 -69.9500 257° West 510 587 36,000  Level Edmonton Center
11:00AM 65.4469 -65.4277 258° West  Level Estimated
11:00AM 66.4000 -70.2833 244° Southwest 520 598 36,000  Level Edmonton Center
11:01AM 65.4199 -65.7334 258° West  Level Estimated
11:01AM 66.3500 -70.6000 249° West 520 598 36,000  Level Edmonton Center
11:02AM 66.2833 -70.9333 244° Southwest 520 598 36,000  Level Edmonton Center
11:03AM 66.2333 -71.2500 249° West 520 598 36,000  Level Edmonton Center
11:04AM 66.1833 -71.6167 251° West 510 587 36,000  Level Edmonton Center
11:05AM 66.1167 -71.9333 243° Southwest 520 598 36,000  Level Edmonton Center
11:06AM 66.0667 -72.2500 249° West 510 587 36,000  Level Edmonton Center
11:07AM 66.0167 -72.5500 248° West 520 598 36,000  Level Edmonton Center
11:08AM 65.9500 -72.8667 243° Southwest 500 575 36,000  Level Edmonton Center
11:09AM 65.8833 -73.1833 243° Southwest 510 587 36,000  Level Edmonton Center
11:10AM 65.8333 -73.5000 249° West 520 598 36,000  Level Edmonton Center
11:11AM 65.7667 -73.8167 243° Southwest 520 598 36,000  Level Edmonton Center
11:12AM 65.7167 -74.1167 248° West 510 587 36,000  Level Edmonton Center
11:13AM 65.6500 -74.4167 242° Southwest 510 587 36,000  Level Edmonton Center
11:14AM 65.5833 -74.7667 245° Southwest 510 587 36,000  Level Edmonton Center
11:15AM 65.5167 -75.0667 242° Southwest 510 587 36,000  Level Edmonton Center
11:16AM 65.4500 -75.3833 243° Southwest 510 587 36,000  Level Edmonton Center
11:17AM 65.4000 -75.6333 244° Southwest 500 575 36,000  Level Edmonton Center
11:19AM 65.3336 -75.9917 246° West  Level FlightAware Approximate
11:26AM 64.9408 -77.9909 246° West  Level FlightAware Approximate
11:27AM 64.8825 -78.2717 244° Southwest  Level FlightAware Approximate
11:28AM 64.8237 -78.5512 244° Southwest  Level FlightAware Approximate
11:29AM 64.7644 -78.8295 244° Southwest  Level FlightAware Approximate
11:30AM 64.7046 -79.1066 243° Southwest  Level FlightAware Approximate
11:31AM 64.6442 -79.3824 243° Southwest  Level FlightAware Approximate
11:32AM 64.5833 -79.6571 243° Southwest  Level FlightAware Approximate
11:33AM 64.5220 -79.9305 243° Southwest  Level FlightAware Approximate
11:34AM 64.4601 -80.2027 242° Southwest  Level FlightAware Approximate
11:35AM 64.3977 -80.4736 242° Southwest  Level FlightAware Approximate
11:36AM 64.3348 -80.7433 242° Southwest  Level FlightAware Approximate
11:37AM 64.2715 -81.0118 242° Southwest  Level FlightAware Approximate
11:38AM 64.2076 -81.2790 241° Southwest  Level FlightAware Approximate
11:39AM 64.1433 -81.5450 241° Southwest  Level FlightAware Approximate
11:40AM 64.0785 -81.8098 241° Southwest  Level FlightAware Approximate
11:41AM 64.0132 -82.0733 241° Southwest  Level FlightAware Approximate
11:42AM 63.9474 -82.3356 240° Southwest  Level FlightAware Approximate
11:43AM 63.8811 -82.5966 240° Southwest  Level FlightAware Approximate
11:44AM 63.8144 -82.8565 240° Southwest  Level FlightAware Approximate
11:45AM 63.7472 -83.1151 240° Southwest  Level FlightAware Approximate
11:46AM 63.6796 -83.3725 239° Southwest  Level FlightAware Approximate
11:47AM 63.6115 -83.6286 239° Southwest  Level FlightAware Approximate
11:48AM 63.5429 -83.8835 239° Southwest  Level FlightAware Approximate
11:49AM 63.4739 -84.1372 239° Southwest  Level FlightAware Approximate
11:50AM 63.4045 -84.3896 239° Southwest  Level FlightAware Approximate
11:51AM 63.3346 -84.6409 238° Southwest  Level FlightAware Approximate
11:52AM 63.2643 -84.8909 238° Southwest  Level FlightAware Approximate
11:53AM 63.1922 -85.1374 236° Southwest  Level FlightAware Approximate
11:54AM 63.1185 -85.3814 236° Southwest  Level FlightAware Approximate
11:55AM 63.0444 -85.6242 236° Southwest  Level FlightAware Approximate
11:56AM 62.9699 -85.8657 236° Southwest  Level FlightAware Approximate
11:57AM 62.8950 -86.1060 236° Southwest  Level FlightAware Approximate
11:58AM 62.8197 -86.3450 235° Southwest  Level FlightAware Approximate
11:59AM 62.7440 -86.5828 235° Southwest  Level FlightAware Approximate
12:00PM 62.6679 -86.8195 235° Southwest  Level FlightAware Approximate
12:01PM 62.5913 -87.0548 235° Southwest  Level FlightAware Approximate
12:02PM 62.5144 -87.2890 235° Southwest  Level FlightAware Approximate
12:03PM 62.4373 -87.5222 235° Southwest  Level FlightAware Approximate
12:04PM 62.3605 -87.7554 235° Southwest  Level FlightAware Approximate
12:05PM 62.2833 -87.9874 234° Southwest  Level FlightAware Approximate
12:06PM 62.2057 -88.2181 234° Southwest  Level FlightAware Approximate
12:07PM 62.1278 -88.4477 234° Southwest  Level FlightAware Approximate
12:08PM 62.0495 -88.6762 234° Southwest  Level FlightAware Approximate
12:09PM 61.9708 -88.9034 234° Southwest  Level FlightAware Approximate
12:10PM 61.8917 -89.1295 233° Southwest  Level FlightAware Approximate
12:11PM 61.8123 -89.3544 233° Southwest  Level FlightAware Approximate
12:12PM 61.7325 -89.5781 233° Southwest  Level FlightAware Approximate
12:13PM 61.6523 -89.8007 233° Southwest  Level FlightAware Approximate
12:14PM 61.5718 -90.0221 233° Southwest  Level FlightAware Approximate
12:15PM 61.4909 -90.2424 232° Southwest  Level FlightAware Approximate
12:16PM 61.4097 -90.4615 232° Southwest  Level FlightAware Approximate
12:17PM 61.3281 -90.6795 232° Southwest  Level FlightAware Approximate
12:18PM 61.2462 -90.8964 232° Southwest  Level FlightAware Approximate
12:19PM 61.1639 -91.1121 232° Southwest  Level FlightAware Approximate
12:20PM 61.0813 -91.3267 232° Southwest  Level FlightAware Approximate
12:21PM 60.9983 -91.5402 231° Southwest  Level FlightAware Approximate
12:22PM 60.9151 -91.7526 231° Southwest  Level FlightAware Approximate
12:23PM 60.8314 -91.9638 231° Southwest  Level FlightAware Approximate
12:24PM 60.7475 -92.1740 231° Southwest  Level FlightAware Approximate
12:25PM 60.6632 -92.3830 231° Southwest  Level FlightAware Approximate
12:26PM 60.5786 -92.5910 230° Southwest  Level FlightAware Approximate
12:27PM 60.4937 -92.7979 230° Southwest  Level FlightAware Approximate
12:28PM 60.4084 -93.0037 230° Southwest  Level FlightAware Approximate
12:29PM 60.3229 -93.2084 230° Southwest  Level FlightAware Approximate
12:30PM 60.2370 -93.4120 230° Southwest  Level FlightAware Approximate
12:31PM 60.1508 -93.6146 230° Southwest  Level FlightAware Approximate
12:32PM 60.0643 -93.8161 229° Southwest  Level FlightAware Approximate
12:33PM 59.9775 -94.0166 229° Southwest  Level FlightAware Approximate
12:34PM 59.8904 -94.2160 229° Southwest  Level FlightAware Approximate
12:35PM 59.8031 -94.4144 229° Southwest  Level FlightAware Approximate
12:35PM 59.2500 -94.8667 228° Southwest 500 575 36,000  Level Edmonton Center
12:36PM 59.7154 -94.6117 229° Southwest  Level FlightAware Approximate
12:36PM 59.1667 -95.0667 231° Southwest 480 552 36,000  Level Edmonton Center
12:37PM 59.6271 -94.8075 228° Southwest  Level FlightAware Approximate
12:37PM 59.0833 -95.2833 233° Southwest 480 552 36,000  Level Edmonton Center
12:38PM 59.5384 -95.0020 228° Southwest  Level FlightAware Approximate
12:38PM 59.0167 -95.4667 235° Southwest 490 564 36,000  Level Edmonton Center
12:39PM 59.4494 -95.1955 228° Southwest  Level FlightAware Approximate
12:39PM 58.9167 -95.7000 230° Southwest 490 564 36,000  Level Edmonton Center
12:40PM 59.3601 -95.3879 228° Southwest  Level FlightAware Approximate
12:40PM 58.8333 -95.8833 229° Southwest 480 552 36,000  Level Edmonton Center
12:41PM 58.7500 -96.1000 234° Southwest 480 552 36,000  Level Edmonton Center
12:42PM 58.6667 -96.3000 231° Southwest 490 564 36,000  Level Edmonton Center
12:43PM 58.5667 -96.5167 229° Southwest 480 552 36,000  Level Edmonton Center
12:44PM 58.4833 -96.7000 229° Southwest 480 552 36,000  Level Edmonton Center
12:45PM 58.4167 -96.9167 240° Southwest 480 552 36,000 360 Level Edmonton Center
12:46PM 58.3000 -97.1333 224° Southwest 490 564 36,800 900 Climbing Edmonton Center
12:47PM 58.2333 -97.3000 233° Southwest 490 564 37,800 600 Climbing Edmonton Center
12:48PM 58.1333 -97.5333 231° Southwest 490 564 38,000 60 Climbing Edmonton Center
12:49PM 58.0500 -97.7000 227° Southwest 490 564 38,000  Level Edmonton Center
12:50PM 57.9667 -97.9167 234° Southwest 490 564 38,000  Level Edmonton Center
12:51PM 57.8667 -98.1000 224° Southwest 490 564 38,000  Level Edmonton Center
12:52PM 57.7833 -98.3000 232° Southwest 480 552 38,000  Level Edmonton Center
12:53PM 57.6833 -98.5167 229° Southwest 480 552 38,000  Level Edmonton Center
12:54PM 57.6000 -98.6833 227° Southwest 490 564 38,000  Level Edmonton Center
12:55PM 57.5000 -98.9000 229° Southwest 480 552 38,000  Level Edmonton Center
12:56PM 57.4167 -99.0667 227° Southwest 480 552 38,000  Level Edmonton Center
12:57PM 57.3333 -99.2667 232° Southwest 480 552 38,000  Level Edmonton Center
12:58PM 57.2333 -99.4333 222° Southwest 480 552 38,000  Level Edmonton Center
12:59PM 57.1500 -99.6333 233° Southwest 480 552 38,000  Level Edmonton Center
01:00PM 57.0500 -99.8167 225° Southwest 480 552 38,000  Level Edmonton Center
01:01PM 56.9667 -100.0167 233° Southwest 480 552 38,000  Level Edmonton Center
01:02PM 56.8833 -100.2167 233° Southwest 480 552 38,000  Level Edmonton Center
01:03PM 56.8000 -100.4000 230° Southwest 470 541 38,000  Level Edmonton Center
01:04PM 56.7167 -100.5667 228° Southwest 480 552 38,000  Level Edmonton Center
01:05PM 56.6500 -100.7667 239° Southwest 480 552 38,000  Level Edmonton Center
01:06PM 56.5500 -100.9667 228° Southwest 480 552 38,000  Level Edmonton Center
01:07PM 56.4667 -101.1500 231° Southwest 470 541 38,000  Level Edmonton Center
01:08PM 56.3833 -101.3500 233° Southwest 470 541 38,000  Level Edmonton Center
01:09PM 56.3000 -101.5333 231° Southwest 480 552 38,000  Level Edmonton Center
01:10PM 56.2167 -101.7333 233° Southwest 480 552 38,000  Level Edmonton Center
01:11PM 56.1167 -101.9167 226° Southwest 480 552 38,000  Level Edmonton Center
01:12PM 56.0333 -102.1167 233° Southwest 480 552 38,000  Level Edmonton Center
01:13PM 55.9667 -102.3000 237° Southwest 480 552 38,000  Level Edmonton Center
01:14PM 55.8833 -102.4833 231° Southwest 470 541 38,000  Level Edmonton Center
01:15PM 55.8000 -102.6333 225° Southwest 480 552 38,000  Level Edmonton Center
01:16PM 55.7000 -102.8500 231° Southwest 480 552 38,000  Level Edmonton Center
01:17PM 55.6167 -103.0167 229° Southwest 480 552 38,000  Level Edmonton Center
01:18PM 55.5333 -103.2000 231° Southwest 480 552 38,000  Level Edmonton Center
01:19PM 55.4333 -103.3833 226° Southwest 470 541 38,000  Level Edmonton Center
01:20PM 55.3500 -103.5667 231° Southwest 470 541 38,000  Level Edmonton Center
01:21PM 55.2667 -103.7500 231° Southwest 470 541 38,000  Level Edmonton Center
01:22PM 55.1667 -103.9167 224° Southwest 470 541 38,000  Level Edmonton Center
01:23PM 55.0833 -104.1000 232° Southwest 470 541 38,000  Level Edmonton Center
01:24PM 55.0000 -104.2833 232° Southwest 470 541 38,000  Level Edmonton Center
01:25PM 54.9167 -104.4333 226° Southwest 470 541 38,000  Level Edmonton Center
01:26PM 54.8333 -104.6167 232° Southwest 470 541 38,000  Level Edmonton Center
01:27PM 54.7500 -104.7833 229° Southwest 470 541 38,000  Level Edmonton Center
01:28PM 54.6500 -104.9667 227° Southwest 470 541 38,000  Level Edmonton Center
01:29PM 54.5667 -105.1333 229° Southwest 470 541 38,000  Level Edmonton Center
01:30PM 54.4833 -105.2833 226° Southwest 460 529 38,000  Level Edmonton Center
01:31PM 54.4000 -105.4500 229° Southwest 460 529 38,000  Level Edmonton Center
01:32PM 54.3167 -105.6333 232° Southwest 460 529 38,000  Level Edmonton Center
01:33PM 54.2333 -105.7667 223° Southwest 460 529 38,000  Level Edmonton Center
01:34PM 54.1167 -105.9667 225° Southwest 460 529 38,000  Level Edmonton Center
01:35PM 54.0333 -106.1167 227° Southwest 460 529 38,000  Level Edmonton Center
01:36PM 53.9500 -106.2833 230° Southwest 450 518 38,000  Level Edmonton Center
01:37PM 53.8667 -106.4333 227° Southwest 450 518 38,000  Level Edmonton Center
01:38PM 53.7833 -106.6000 230° Southwest 450 518 38,000  Level Edmonton Center
01:39PM 53.6833 -106.7333 218° Southwest 440 506 38,000  Level Edmonton Center
01:40PM 53.6167 -106.9000 236° Southwest 440 506 38,000  Level Edmonton Center
01:41PM 53.5167 -107.0333 218° Southwest 440 506 38,000  Level Edmonton Center
01:42PM 53.4500 -107.2000 236° Southwest 440 506 38,000  Level Edmonton Center
01:43PM 53.3333 -107.3667 220° Southwest 440 506 38,000  Level Edmonton Center
01:44PM 53.2667 -107.5167 233° Southwest 450 518 38,000  Level Edmonton Center
01:45PM 53.1833 -107.6500 224° Southwest 450 518 38,000  Level Edmonton Center
01:46PM 53.1000 -107.8000 227° Southwest 450 518 38,000  Level Edmonton Center
01:47PM 53.0000 -107.9500 222° Southwest 450 518 38,000  Level Edmonton Center
01:48PM 52.9167 -108.1000 227° Southwest 450 518 38,000  Level Edmonton Center
01:49PM 52.8333 -108.2667 230° Southwest 450 518 38,000  Level Edmonton Center
01:50PM 52.7333 -108.4000 219° Southwest 450 518 38,000  Level Edmonton Center
01:51PM 52.6333 -108.5500 222° Southwest 460 529 38,000  Level Edmonton Center
01:52PM 52.5500 -108.6833 224° Southwest 450 518 38,000  Level Edmonton Center
01:53PM 52.4500 -108.8167 219° Southwest 450 518 38,000  Level Edmonton Center
01:54PM 52.3667 -108.9500 224° Southwest 450 518 38,000  Level Edmonton Center
01:55PM 52.2667 -109.1000 223° Southwest 450 518 38,000  Level Edmonton Center
01:56PM 52.1667 -109.2333 219° Southwest 450 518 38,000  Level Edmonton Center
01:57PM 52.0833 -109.3667 225° Southwest 450 518 38,000  Level Edmonton Center
01:58PM 51.9667 -109.5167 218° Southwest 460 529 38,000  Level Edmonton Center
01:59PM 51.8833 -109.6667 228° Southwest 460 529 38,000  Level Edmonton Center
02:00PM 51.7667 -109.8000 215° Southwest 450 518 38,000  Level Edmonton Center
02:01PM 51.6833 -109.9167 221° Southwest 450 518 38,000  Level Edmonton Center
02:02PM 51.6000 -110.0500 225° Southwest 450 518 38,000  Level Edmonton Center
02:03PM 51.5000 -110.2000 223° Southwest 450 518 38,000  Level Edmonton Center
02:04PM 51.4000 -110.3167 216° Southwest 450 518 38,000  Level Edmonton Center
02:05PM 51.3000 -110.4500 220° Southwest 450 518 38,000  Level Edmonton Center
02:06PM 51.2000 -110.6000 223° Southwest 460 529 38,000  Level Edmonton Center
02:07PM 51.1000 -110.7167 216° Southwest 460 529 38,000  Level Edmonton Center
02:08PM 51.0167 -110.8667 229° Southwest 460 529 38,000  Level Edmonton Center
02:09PM 50.9000 -110.9833 212° Southwest 460 529 38,000  Level Edmonton Center
02:10PM 50.8167 -111.1333 229° Southwest 470 541 38,000  Level Edmonton Center
02:11PM 50.7000 -111.2500 212° Southwest 470 541 38,000  Level Edmonton Center
02:12PM 50.6167 -111.4000 229° Southwest 460 529 38,000  Level Edmonton Center
02:13PM 50.5167 -111.5167 217° Southwest 470 541 38,000  Level Edmonton Center
02:14PM 50.4167 -111.6667 224° Southwest 470 541 38,000  Level Edmonton Center
02:15PM 50.3000 -111.7833 213° Southwest 470 541 38,000  Level Edmonton Center
02:16PM 50.2000 -111.9167 221° Southwest 470 541 38,000  Level Edmonton Center
02:17PM 50.1000 -112.0667 224° Southwest 470 541 38,000  Level Edmonton Center
02:18PM 50.0000 -112.1833 217° Southwest 480 552 38,000  Level Edmonton Center
02:19PM 49.9000 -112.3167 221° Southwest 480 552 38,000  Level Edmonton Center
02:20PM 49.7833 -112.4333 213° Southwest 480 552 38,000  Level Edmonton Center
02:21PM 49.6833 -112.5667 221° Southwest 480 552 38,000  Level Edmonton Center
02:22PM 49.5833 -112.7167 224° Southwest 470 541 38,000  Level Edmonton Center
02:23PM 49.4833 -112.8500 221° Southwest 460 529 38,000  Level Edmonton Center
02:24PM 49.4000 -113.0000 230° Southwest 460 529 38,000 300 Level Edmonton Center
02:25PM 49.3000 -113.1333 221° Southwest 460 529 38,600 780 Climbing Edmonton Center
02:26PM 49.2000 -113.2500 217° Southwest 460 529 39,600 660 Climbing Edmonton Center
02:27PM 49.1000 -113.3833 221° Southwest 460 529 40,000 180 Climbing Edmonton Center
02:28PM 49.0333 -113.5167 233° Southwest 470 541 40,000  Level Edmonton Center
02:29PM 48.9167 -113.6500 217° Southwest 470 541 40,000  Level Edmonton Center
02:30PM 48.8167 -113.7833 221° Southwest 470 541 40,000  Level Edmonton Center
02:31PM 48.7167 -113.9333 225° Southwest 460 529 40,000  Level Edmonton Center
02:32PM 48.6500 -114.0667 233° Southwest 450 518 40,000  Level Edmonton Center
02:33PM 48.5567 -114.1867 220° Southwest 465 535 40,000 -60 Level Seattle Center
02:34PM 48.4783 -114.2917 222° Southwest 470 541 39,900 -120 Descending Salt Lake Center
02:35PM 48.4028 -114.3964 223° Southwest 469 540 39,900 60 Level Salt Lake Center
02:36PM 48.3081 -114.5239 222° Southwest 464 534 40,000  Climbing Salt Lake Center
02:37PM 48.2139 -114.6503 222° Southwest 463 533 40,000 -60 Level Salt Lake Center
02:38PM 48.1186 -114.7778 222° Southwest 467 537 39,900  Descending Salt Lake Center
02:39PM 48.0236 -114.9056 222° Southwest 466 536 40,000  Climbing Salt Lake Center
02:40PM 47.9072 -115.0606 222° Southwest 470 541 40,000 -60 Level Salt Lake Center
02:41PM 47.8097 -115.1883 221° Southwest 469 540 39,900  Descending Salt Lake Center
02:42PM 47.7128 -115.3156 221° Southwest 468 539 40,000  Climbing Salt Lake Center
02:43PM 47.6147 -115.4436 221° Southwest 471 542 40,000  Level Salt Lake Center
02:44PM 47.5167 -115.5714 221° Southwest 471 542 40,000  Level Salt Lake Center
02:45PM 47.4164 -115.6931 219° Southwest 469 540 40,000  Level Salt Lake Center
02:46PM 47.3100 -115.8078 216° Southwest 474 545 40,000  Level Salt Lake Center
02:47PM 47.1828 -115.9472 217° Southwest 476 548 40,000  Level Salt Lake Center
02:48PM 47.0900 -116.0447 216° Southwest 478 550 40,000  Level Salt Lake Center
02:49PM 46.9606 -116.1836 216° Southwest 480 552 40,000 -60 Level Salt Lake Center
02:50PM 46.8506 -116.2975 215° Southwest 482 555 39,900 -60 Descending Salt Lake Center
02:51PM 46.7375 -116.4108 215° Southwest 481 554 39,900  Level Salt Lake Center
02:52PM 46.6283 -116.5181 214° Southwest 484 557 40,000  Climbing Salt Lake Center
02:53PM 46.5186 -116.6281 215° Southwest 481 554 40,000  Level Salt Lake Center
02:54PM 46.4094 -116.7386 215° Southwest 478 550 40,000  Level Salt Lake Center
02:55PM 46.3000 -116.8467 214° Southwest 478 550 40,000  Level Salt Lake Center
02:57PM 46.1664 -116.9744 214° Southwest 480 552 40,000  Level Seattle Center
02:58PM 46.0353 -117.1036 214° Southwest 478 550 40,000 -60 Level Seattle Center
02:59PM 45.9256 -117.2111 214° Southwest 477 549 39,900  Descending Seattle Center
03:00PM 45.8156 -117.3164 214° Southwest 476 548 40,000  Climbing Seattle Center
03:01PM 45.7081 -117.4214 214° Southwest 471 542 40,000  Level Seattle Center
03:01PM 45.6186 -117.5069 214° Southwest 468 539 40,000  Level Seattle Center
03:02PM 45.5117 -117.6083 214° Southwest 463 533 40,000  Level Seattle Center
03:03PM 45.4078 -117.7078 214° Southwest 453 521 40,000  Level Seattle Center
03:04PM 45.3014 -117.8075 213° Southwest 455 524 40,000  Level Seattle Center
03:06PM 45.1942 -117.9089 214° Southwest 461 531 40,000  Level Seattle Center
03:07PM 45.0711 -118.0231 213° Southwest 465 535 40,000  Level Seattle Center
03:08PM 44.9631 -118.1256 214° Southwest 470 541 40,000  Level Seattle Center
03:09PM 44.8669 -118.2133 213° Southwest 472 543 40,000  Level Seattle Center
03:10PM 44.7567 -118.3164 214° Southwest 475 547 40,000  Level Seattle Center
03:11PM 44.6225 -118.4392 213° Southwest 478 550 40,000  Level Salt Lake Center
03:12PM 44.5117 -118.5408 213° Southwest 476 548 40,000  Level Salt Lake Center
03:13PM 44.4000 -118.6425 213° Southwest 479 551 40,000  Level Seattle Center
03:14PM 44.2889 -118.7447 213° Southwest 478 550 40,000  Level Seattle Center
03:15PM 44.1769 -118.8442 213° Southwest 479 551 40,000  Level Seattle Center
03:16PM 44.0647 -118.9453 213° Southwest 480 552 40,000  Level Seattle Center
03:17PM 43.9547 -119.0436 213° Southwest 472 543 40,000  Level Seattle Center
03:18PM 43.8439 -119.1422 213° Southwest 474 545 40,000  Level Seattle Center
03:19PM 43.7333 -119.2397 213° Southwest 472 543 40,000  Level Seattle Center
03:20PM 43.6231 -119.3369 213° Southwest 470 541 40,000  Level Seattle Center
03:21PM 43.5111 -119.4358 213° Southwest 477 549 40,000  Level Seattle Center
03:22PM 43.4006 -119.5322 212° Southwest 473 544 40,000  Level Seattle Center
03:23PM 43.2756 -119.6417 213° Southwest 471 542 40,000  Level Seattle Center
03:24PM 43.1644 -119.7383 212° Southwest 471 542 40,000  Level Seattle Center
03:25PM 43.0522 -119.8344 212° Southwest 477 549 40,000  Level Seattle Center
03:26PM 42.9403 -119.9283 212° Southwest 474 545 40,000  Level Seattle Center
03:27PM 42.8300 -120.0231 212° Southwest 472 543 40,000  Level Seattle Center
03:28PM 42.7194 -120.1192 213° Southwest 471 542 40,000  Level Seattle Center
03:29PM 42.6072 -120.2125 211° Southwest 472 543 40,000  Level Seattle Center
03:30PM 42.4983 -120.3050 212° Southwest 467 537 40,000  Level Seattle Center
03:31PM 42.3908 -120.3961 212° Southwest 459 528 40,000  Level Seattle Center
03:32PM 42.2808 -120.4869 211° Southwest 463 533 40,000  Level Seattle Center
03:33PM 42.1733 -120.5758 212° Southwest 457 526 40,000  Level Seattle Center
03:34PM 42.0664 -120.6669 212° Southwest 455 524 40,000  Level Seattle Center
03:35PM 41.9581 -120.7561 211° Southwest 454 522 40,000  Level Seattle Center
03:36PM 41.8283 -120.8614 211° Southwest 451 519 40,000  Level Seattle Center
03:37PM 41.7200 -120.9506 212° Southwest 455 524 40,000  Level Seattle Center
03:38PM 41.6147 -121.0364 211° Southwest 443 510 40,000  Level Seattle Center
03:43PM 41.0520 -121.4882 211° Southwest 443 510 40,000  Level FlightAware ADS-B (KAHC)
03:44PM 40.9992 -121.5301 211° Southwest 441 507 40,000  Level FlightAware ADS-B (KAHC)
03:44PM 40.9440 -121.5746 211° Southwest 440 506 40,000  Level FlightAware ADS-B (KAHC)
03:45PM 40.8914 -121.6162 211° Southwest 438 504 40,000  Level FlightAware ADS-B (KAHC)
03:45PM 40.8371 -121.6589 211° Southwest 437 503 40,000  Level FlightAware ADS-B (KAHC)
03:46PM 40.7841 -121.7014 211° Southwest 436 502 40,000  Level FlightAware ADS-B (KAHC)
03:47PM 40.7114 -121.7587 211° Southwest 436 502 40,000  Level FlightAware ADS-B (KAHC)
03:47PM 40.6580 -121.7996 211° Southwest 436 502 40,000  Level FlightAware ADS-B (KAHC)
03:47PM 40.6381 -121.8158 211° Southwest 435 501 40,000  Level FlightAware ADS-B (KAHC)
03:48PM 40.6555 -121.8024 210° Southwest 434 499 40,000  Level FlightAware ADS-B
03:49PM 40.4563 -121.9577 210° Southwest 431 496 40,000  Level FlightAware ADS-B
03:50PM 40.3805 -122.0167 211° Southwest 432 497 40,000  Level FlightAware ADS-B (KAHC)
03:50PM 40.3813 -122.0167 210° Southwest 433 498 40,000  Level FlightAware ADS-B
03:51PM 40.2874 -122.0905 211° Southwest 434 499 40,000  Level FlightAware ADS-B (KAHC)
03:51PM 40.2351 -122.1308 211° Southwest 436 502 40,000  Level FlightAware ADS-B (KAHC)
03:51PM 40.2401 -122.1268 210° Southwest 435 501 40,000  Level FlightAware ADS-B
03:52PM 40.1486 -122.1979 211° Southwest 436 502 40,000  Level FlightAware ADS-B (KAHC)
03:53PM 40.0774 -122.2419 198° South 459 528 40,000  Level FlightAware ADS-B (KAHC)
03:53PM 40.0350 -122.2567 193° South 467 537 40,000  Level FlightAware ADS-B
03:54PM 39.9418 -122.2870 193° South 467 537 40,000  Level FlightAware ADS-B
03:55PM 39.8609 -122.3123 193° South 463 533 40,000  Level FlightAware ADS-B
03:56PM 39.7308 -122.3541 193° South 458 527 40,000  Level FlightAware ADS-B
03:56PM 39.6477 -122.3811 193° South 456 525 40,000  Level FlightAware ADS-B
03:57PM 39.5661 -122.4065 193° South 455 524 40,000  Level FlightAware ADS-B
03:58PM 39.4861 -122.4320 193° South 455 524 40,000 -180 Level FlightAware ADS-B
03:58PM 39.3993 -122.4598 193° South 456 525 39,800 -1,320 Descending FlightAware ADS-B
03:59PM 39.3165 -122.4852 193° South 454 522 38,200 -2,400 Descending FlightAware ADS-B
04:00PM 39.2351 -122.5108 193° South 442 509 36,600 -2,220 Descending FlightAware ADS-B
04:00PM 39.1577 -122.5356 193° South 432 497 35,300 -2,160 Descending FlightAware ADS-B
04:01PM 39.0792 -122.5604 193° South 425 489 33,700 -2,220 Descending FlightAware ADS-B
04:02PM 39.0149 -122.5803 193° South 424 488 32,400 -2,340 Descending FlightAware ADS-B
04:02PM 38.9375 -122.6047 193° South 425 489 30,700 -2,400 Descending FlightAware ADS-B
04:03PM 38.8622 -122.6270 191° South 421 484 29,300 -2,160 Descending FlightAware ADS-B
04:04PM 38.7843 -122.6410 184° South 410 472 27,900 -2,340 Descending FlightAware ADS-B
04:04PM 38.7089 -122.6437 180° South 401 461 26,200 -2,460 Descending FlightAware ADS-B
04:05PM 38.6354 -122.6443 180° South 391 450 24,600 -1,620 Descending FlightAware ADS-B
04:06PM 38.5619 -122.6465 181° South 388 447 24,000 -1,560 Descending FlightAware ADS-B
04:07PM 38.4569 -122.6511 182° South 377 434 22,100 -1,980 Descending FlightAware ADS-B
04:07PM 38.3926 -122.6540 181° South 367 422 20,800 -1,920 Descending FlightAware ADS-B
04:08PM 38.3179 -122.6570 181° South 356 410 19,500 -1,980 Descending FlightAware ADS-B
04:09PM 38.2577 -122.6593 181° South 344 396 18,200 -1,980 Descending FlightAware ADS-B
04:09PM 38.2196 -122.6607 181° South 334 384 16,900 -2,100 Descending FlightAware ADS-B
04:10PM 38.1324 -122.6639 181° South 328 377 15,500 -2,100 Descending FlightAware ADS-B
04:11PM 38.0721 -122.6661 181° South 321 369 14,200 -1,740 Descending FlightAware ADS-B
04:12PM 37.9901 -122.6692 181° South 313 360 12,600 -1,560 Descending FlightAware ADS-B
04:12PM 37.9273 -122.6715 181° South 307 353 11,600 -1,500 Descending FlightAware ADS-B
04:13PM 37.8970 -122.6648 164° South 311 358 11,100 -660 Descending FlightAware ADS-B
04:13PM 37.8892 -122.6600 139° Southeast 288 331 11,000 -240 Descending FlightAware ADS-B
04:14PM 37.8224 -122.5900 139° Southeast 281 323 10,900 -120 Descending FlightAware ADS-B
04:14PM 37.7695 -122.5340 140° Southeast 283 326 10,900  Level FlightAware ADS-B
04:16PM 37.7008 -122.4610 140° Southeast 247 284 10,900  Level FlightAware ADS-B
04:16PM 37.6678 -122.4250 140° Southeast 249 287 10,900  Level FlightAware ADS-B
04:17PM 37.6414 -122.3970 140° Southeast 245 282 10,900  Level FlightAware ADS-B
04:17PM 37.6070 -122.3610 140° Southeast 239 275 10,900 -600 Level FlightAware ADS-B
04:18PM 37.5834 -122.3450 152° Southeast 229 264 10,300 -1,500 Descending FlightAware ADS-B
04:18PM 37.5692 -122.3350 153° Southeast 229 264 9,900 -1,620 Descending FlightAware ADS-B
04:18PM 37.5546 -122.3260 152° Southeast 229 264 9,500 -1,560 Descending FlightAware ADS-B
04:19PM 37.5402 -122.3160 152° Southeast 229 264 9,100 -1,380 Descending FlightAware ADS-B
04:19PM 37.5296 -122.3090 153° Southeast 229 264 8,900 -1,080 Descending FlightAware ADS-B
04:19PM 37.5134 -122.2990 153° Southeast 220 253 8,600 -1,080 Descending FlightAware ADS-B
04:19PM 37.5033 -122.2920 149° Southeast 218 251 8,400 -1,500 Descending FlightAware ADS-B
04:19PM 37.4968 -122.2860 142° Southeast 218 251 8,100 -1,680 Descending FlightAware ADS-B
04:20PM 37.4944 -122.2840 138° Southeast 219 252 8,100 -1,320 Level FlightAware ADS-B
04:20PM 37.4829 -122.2690 135° Southeast 217 250 7,700 -1,380 Descending FlightAware ADS-B
04:20PM 37.4719 -122.2560 136° Southeast 217 250 7,400 -1,380 Descending FlightAware ADS-B
04:20PM 37.4606 -122.2420 136° Southeast 216 249 7,000 -1,200 Descending FlightAware ADS-B
04:21PM 37.4495 -122.2290 136° Southeast 216 249 6,800 -840 Descending FlightAware ADS-B
04:21PM 37.4388 -122.2170 137° Southeast 215 247 6,600 -900 Descending FlightAware ADS-B
04:21PM 37.4302 -122.2060 136° Southeast 216 249 6,400 -1,080 Descending FlightAware ADS-B
04:21PM 37.4268 -122.2010 127° Southeast 216 249 6,300 -1,200 Descending FlightAware ADS-B
04:21PM 37.4244 -122.1950 119° Southeast 215 247 6,200 -780 Descending FlightAware ADS-B
04:21PM 37.4233 -122.1920 109° East 214 246 6,200 -1,020 Level FlightAware ADS-B
04:21PM 37.4225 -122.1880 102° East 212 244 6,100 -1,440 Descending FlightAware ADS-B
04:21PM 37.4228 -122.1760 78° East 207 238 5,900 -960 Descending FlightAware ADS-B
04:21PM 37.4237 -122.1730 71° East 207 238 5,900 -1,020 Level FlightAware ADS-B
04:22PM 37.4250 -122.1690 63° Northeast 206 237 5,800 -1,740 Descending FlightAware ADS-B
04:22PM 37.4263 -122.1670 56° Northeast 206 237 5,700 -900 Descending FlightAware ADS-B
04:22PM 37.4286 -122.1630 47° Northeast 205 236 5,700 -1,020 Level FlightAware ADS-B
04:22PM 37.4310 -122.1600 42° Northeast 204 235 5,600 -2,040 Descending FlightAware ADS-B
04:22PM 37.4333 -122.1580 39° Northeast 203 234 5,500 -900 Descending FlightAware ADS-B
04:22PM 37.4360 -122.1550 35° Northeast 202 232 5,500 -900 Level FlightAware ADS-B
04:22PM 37.4384 -122.1530 31° Northeast 201 231 5,400 -2,040 Descending FlightAware ADS-B
04:22PM 37.4410 -122.1520 24° Northeast 201 231 5,300 -1,500 Descending FlightAware ADS-B
04:22PM 37.4449 -122.1500 15° North 199 229 5,200 -780 Descending FlightAware ADS-B
04:22PM 37.4479 -122.1500 North 198 228 5,200 -1,020 Level FlightAware ADS-B
04:22PM 37.4509 -122.1490 358° North 197 227 5,100 -2,040 Descending FlightAware ADS-B
04:22PM 37.4536 -122.1500 352° North 196 226 5,000 -1,020 Descending FlightAware ADS-B
04:22PM 37.4566 -122.1510 349° North 195 224 5,000 -1,140 Level FlightAware ADS-B
04:22PM 37.4632 -122.1520 345° North 194 223 4,800 -1,500 Descending FlightAware ADS-B
04:23PM 37.4733 -122.1560 345° North 193 222 4,500 -1,380 Descending FlightAware ADS-B
04:23PM 37.4865 -122.1600 346° North 194 223 4,200 -1,440 Descending FlightAware ADS-B
04:23PM 37.5000 -122.1640 346° North 194 223 3,800 -1,620 Descending FlightAware ADS-B
04:23PM 37.5126 -122.1680 346° North 184 212 3,400 -1,680 Descending FlightAware ADS-B
04:24PM 37.5238 -122.1720 346° North 180 207 3,000 -1,500 Descending FlightAware ADS-B
04:24PM 37.5287 -122.1730 343° North 177 204 2,900 -600 Descending FlightAware ADS-B
04:24PM 37.5320 -122.1750 334° Northwest 177 204 2,900 -600 Level FlightAware ADS-B
04:24PM 37.5354 -122.1790 315° West 177 204 2,800 -1,380 Descending FlightAware ADS-B
04:24PM 37.5369 -122.1810 309° West 176 203 2,700 -900 Descending FlightAware ADS-B
04:24PM 37.5388 -122.1840 302° West 172 198 2,700 -720 Level FlightAware ADS-B
04:24PM 37.5408 -122.1880 297° West 167 192 2,600 -780 Descending FlightAware ADS-B
04:24PM 37.5444 -122.1980 295° West 168 193 2,500 -840 Descending FlightAware ADS-B
04:24PM 37.5487 -122.2080 298° West 166 191 2,300 -960 Descending FlightAware ADS-B
04:24PM 37.5515 -122.2140 298° West 166 191 2,200 -600 Descending FlightAware ADS-B
04:25PM 37.5569 -122.2280 298° West 166 191 2,100 -480 Descending FlightAware ADS-B
04:25PM 37.5604 -122.2360 298° West 162 186 2,000 -720 Descending FlightAware ADS-B
04:25PM 37.5654 -122.2480 298° West 157 181 1,800 -840 Descending FlightAware ADS-B
04:25PM 37.5705 -122.2600 298° West 160 184 1,600 -840 Descending FlightAware ADS-B
04:26PM 37.5756 -122.2720 298° West 155 178 1,400 -960 Descending FlightAware ADS-B
04:26PM 37.5794 -122.2810 298° West 150 173 1,200 -900 Descending FlightAware ADS-B
04:26PM 37.5843 -122.2930 297° West 148 170 1,000 -660 Descending FlightAware ADS-B
04:26PM 37.5913 -122.3100 298° West 149 171 800 -720 Descending FlightAware ADS-B
04:27PM 37.5977 -122.3250 298° West 144 166 500 -780 Descending FlightAware ADS-B
04:27PM 37.6014 -122.3330 297° West 142 163 400 -840 Descending FlightAware ADS-B
04:27PM 37.6048 -122.3420 298° West 141 162 200 -900 Descending FlightAware ADS-B
04:27PM 37.6075 -122.3480 298° West 141 162 100 -720 Descending FlightAware ADS-B